HBBA/BJM METAR and TAF weather

Enter ICAO airport designator
Station Type Date Time Source
HBBA METAR 2018/04/25 08:00 UTC NOAA

HBBA 250800Z 00000KT 9999 FEW025 SCT100 28/21 Q1015 NOSIG


Station Type Date Time Source
HBBA Decoded METAR 2018/04/25 08:00 UTC NOAA

Bujumbura, Burundi (HBBA) 03-19S 029-19E 783M
Apr 25, 2018 - 04:00 AM EDT / 2018.04.25 0800 UTC
Wind: Calm:0
Visibility: greater than 7 mile(s):0
Sky conditions: partly cloudy
Temperature: 82 F (28 C)
Dew Point: 69 F (21 C)
Relative Humidity: 65%
Pressure (altimeter): 29.97 in. Hg (1015 hPa)
ob: HBBA 250800Z 00000KT 9999 FEW025 SCT100 28/21 Q1015 NOSIG
cycle: 8

Station Type Date Time Source
HBBA TAF 2018/04/26 06:54 UTC NOAA

TAF TAF HBBA 260500Z 2606/2712 1810G20KT 9000 FEW025 FEW030CB BKN100 PROB40
TEMPO2612/2618 09015G27KT 5000 SHRA OR TSRA SCT025CB BKN100
BECMG2702/2704 36002KT 9999 FEW025 BKN100
BECMG2707/2709 18010G20KT 9999 FEW025 FEW030CB BKN100


Example: see airport list